sensor_id;sensor_type;location;lat;lon;timestamp;pressure;altitude;pressure_sealevel;temperature;humidity
60337;BME280;46978;50.288;28.624;2023-02-17T00:00:05;99076.09;;;1.35;90.20
60337;BME280;46978;50.288;28.624;2023-02-17T00:01:21;99074.41;;;1.35;90.10
60337;BME280;46978;50.288;28.624;2023-02-17T00:02:23;99071.83;;;1.34;90.19
60337;BME280;46978;50.288;28.624;2023-02-17T00:03:26;99077.81;;;1.36;90.16
60337;BME280;46978;50.288;28.624;2023-02-17T00:04:29;99070.97;;;1.35;90.14
60337;BME280;46978;50.288;28.624;2023-02-17T00:05:31;99075.26;;;1.36;90.13
60337;BME280;46978;50.288;28.624;2023-02-17T00:06:33;99070.95;;;1.33;90.45
60337;BME280;46978;50.288;28.624;2023-02-17T00:07:35;99070.95;;;1.33;90.45
60337;BME280;46978;50.288;28.624;2023-02-17T00:08:36;99077.81;;;1.36;90.27
60337;BME280;46978;50.288;28.624;2023-02-17T00:09:38;99081.22;;;1.36;90.29
60337;BME280;46978;50.288;28.624;2023-02-17T00:10:40;99078.64;;;1.35;90.23
60337;BME280;46978;50.288;28.624;2023-02-17T00:11:42;99072.68;;;1.34;90.36
60337;BME280;46978;50.288;28.624;2023-02-17T00:12:44;99077.81;;;1.36;90.29
60337;BME280;46978;50.288;28.624;2023-02-17T00:13:46;99077.81;;;1.36;90.22
60337;BME280;46978;50.288;28.624;2023-02-17T00:14:48;99075.26;;;1.36;90.26
60337;BME280;46978;50.288;28.624;2023-02-17T00:15:49;99075.26;;;1.36;90.35
60337;BME280;46978;50.288;28.624;2023-02-17T00:16:51;99071.85;;;1.35;90.27
60337;BME280;46978;50.288;28.624;2023-02-17T00:17:53;99076.97;;;1.35;90.23
60337;BME280;46978;50.288;28.624;2023-02-17T00:18:57;99078.64;;;1.35;90.25
60337;BME280;46978;50.288;28.624;2023-02-17T00:19:59;99072.70;;;1.36;90.16
60337;BME280;46978;50.288;28.624;2023-02-17T00:21:16;99069.31;;;1.37;90.15
60337;BME280;46978;50.288;28.624;2023-02-17T00:22:18;99077.84;;;1.37;90.13
60337;BME280;46978;50.288;28.624;2023-02-17T00:23:19;99071.89;;;1.38;90.11
60337;BME280;46978;50.288;28.624;2023-02-17T00:24:22;99066.78;;;1.38;90.07
60337;BME280;46978;50.288;28.624;2023-02-17T00:25:24;99062.50;;;1.37;90.19
60337;BME280;46978;50.288;28.624;2023-02-17T00:26:27;99069.31;;;1.37;90.24
60337;BME280;46978;50.288;28.624;2023-02-17T00:27:28;99067.59;;;1.36;90.24
60337;BME280;46978;50.288;28.624;2023-02-17T00:28:30;99069.27;;;1.34;90.24
60337;BME280;46978;50.288;28.624;2023-02-17T00:29:32;99068.41;;;1.35;90.38
60337;BME280;46978;50.288;28.624;2023-02-17T00:30:36;99065.86;;;1.35;90.33
60337;BME280;46978;50.288;28.624;2023-02-17T00:31:38;99065.86;;;1.35;90.33
60337;BME280;46978;50.288;28.624;2023-02-17T00:32:39;99060.75;;;1.35;90.35
60337;BME280;46978;50.288;28.624;2023-02-17T00:33:41;99060.75;;;1.35;90.38
60337;BME280;46978;50.288;28.624;2023-02-17T00:34:43;99061.63;;;1.35;90.24
60337;BME280;46978;50.288;28.624;2023-02-17T00:35:44;99061.63;;;1.35;90.31
60337;BME280;46978;50.288;28.624;2023-02-17T00:36:47;99054.80;;;1.36;90.37
60337;BME280;46978;50.288;28.624;2023-02-17T00:37:48;99059.90;;;1.34;90.43
60337;BME280;46978;50.288;28.624;2023-02-17T00:38:52;99056.49;;;1.34;90.45
60337;BME280;46978;50.288;28.624;2023-02-17T00:39:54;99047.95;;;1.33;90.42
60337;BME280;46978;50.288;28.624;2023-02-17T00:40:55;99055.61;;;1.33;90.47
60337;BME280;46978;50.288;28.624;2023-02-17T00:41:57;99058.17;;;1.33;90.47
60337;BME280;46978;50.288;28.624;2023-02-17T00:42:58;99059.05;;;1.34;90.49
60337;BME280;46978;50.288;28.624;2023-02-17T00:44:00;99053.94;;;1.34;90.45
60337;BME280;46978;50.288;28.624;2023-02-17T00:45:02;99053.05;;;1.33;90.44
60337;BME280;46978;50.288;28.624;2023-02-17T00:46:04;99053.95;;;1.35;90.44
60337;BME280;46978;50.288;28.624;2023-02-17T00:47:06;99047.95;;;1.33;90.47
60337;BME280;46978;50.288;28.624;2023-02-17T00:48:08;99050.52;;;1.35;90.47
60337;BME280;46978;50.288;28.624;2023-02-17T00:49:16;99048.84;;;1.35;90.34
60337;BME280;46978;50.288;28.624;2023-02-17T00:50:20;99047.97;;;1.35;90.41
60337;BME280;46978;50.288;28.624;2023-02-17T00:51:22;99052.25;;;1.36;90.45
60337;BME280;46978;50.288;28.624;2023-02-17T00:52:24;99044.56;;;1.34;90.51
60337;BME280;46978;50.288;28.624;2023-02-17T00:53:26;99046.29;;;1.35;90.45
60337;BME280;46978;50.288;28.624;2023-02-17T00:54:28;99042.88;;;1.36;90.37
60337;BME280;46978;50.288;28.624;2023-02-17T00:55:30;99036.91;;;1.36;90.34
60337;BME280;46978;50.288;28.624;2023-02-17T00:56:32;99043.73;;;1.35;90.35
60337;BME280;46978;50.288;28.624;2023-02-17T00:57:33;99044.58;;;1.36;90.38
60337;BME280;46978;50.288;28.624;2023-02-17T00:58:35;99047.14;;;1.36;90.45
60337;BME280;46978;50.288;28.624;2023-02-17T00:59:37;99042.85;;;1.35;90.39
60337;BME280;46978;50.288;28.624;2023-02-17T01:00:39;99046.29;;;1.35;90.40
60337;BME280;46978;50.288;28.624;2023-02-17T01:01:41;99039.47;;;1.36;90.35
60337;BME280;46978;50.288;28.624;2023-02-17T01:02:42;99045.41;;;1.35;90.39
60337;BME280;46978;50.288;28.624;2023-02-17T01:03:44;99030.06;;;1.35;90.42
60337;BME280;46978;50.288;28.624;2023-02-17T01:04:45;99036.06;;;1.35;90.42
60337;BME280;46978;50.288;28.624;2023-02-17T01:05:48;99031.78;;;1.34;90.45
60337;BME280;46978;50.288;28.624;2023-02-17T01:06:50;99030.05;;;1.33;90.49
60337;BME280;46978;50.288;28.624;2023-02-17T01:07:52;99030.93;;;1.34;90.58
60337;BME280;46978;50.288;28.624;2023-02-17T01:08:53;99030.05;;;1.33;90.53
60337;BME280;46978;50.288;28.624;2023-02-17T01:09:55;99034.31;;;1.33;90.52
60337;BME280;46978;50.288;28.624;2023-02-17T01:10:57;99031.76;;;1.33;90.59
60337;BME280;46978;50.288;28.624;2023-02-17T01:11:59;99030.91;;;1.32;90.57
60337;BME280;46978;50.288;28.624;2023-02-17T01:13:00;99029.20;;;1.33;90.52
60337;BME280;46978;50.288;28.624;2023-02-17T01:14:03;99032.62;;;1.32;90.63
60337;BME280;46978;50.288;28.624;2023-02-17T01:15:06;99032.62;;;1.32;90.63
60337;BME280;46978;50.288;28.624;2023-02-17T01:16:21;99020.64;;;1.29;90.57
60337;BME280;46978;50.288;28.624;2023-02-17T01:17:23;99041.14;;;1.32;90.49
60337;BME280;46978;50.288;28.624;2023-02-17T01:18:25;99033.47;;;1.32;90.62
60337;BME280;46978;50.288;28.624;2023-02-17T01:19:26;99029.18;;;1.31;90.65
60337;BME280;46978;50.288;28.624;2023-02-17T01:20:28;99036.02;;;1.32;90.65
60337;BME280;46978;50.288;28.624;2023-02-17T01:21:31;99030.06;;;1.32;90.58
60337;BME280;46978;50.288;28.624;2023-02-17T01:22:33;99024.95;;;1.32;90.63
60337;BME280;46978;50.288;28.624;2023-02-17T01:23:34;99029.18;;;1.31;90.65
60337;BME280;46978;50.288;28.624;2023-02-17T01:24:37;99025.77;;;1.31;90.58
60337;BME280;46978;50.288;28.624;2023-02-17T01:25:42;99022.38;;;1.30;90.57
60337;BME280;46978;50.288;28.624;2023-02-17T01:26:45;99030.06;;;1.32;90.62
60337;BME280;46978;50.288;28.624;2023-02-17T01:27:47;99019.84;;;1.32;90.64
60337;BME280;46978;50.288;28.624;2023-02-17T01:28:49;99023.22;;;1.31;90.64
60337;BME280;46978;50.288;28.624;2023-02-17T01:29:51;99019.81;;;1.30;90.63
60337;BME280;46978;50.288;28.624;2023-02-17T01:30:53;99019.81;;;1.30;90.59
60337;BME280;46978;50.288;28.624;2023-02-17T01:31:55;99018.11;;;1.31;90.55
60337;BME280;46978;50.288;28.624;2023-02-17T01:32:56;99020.66;;;1.31;90.63
60337;BME280;46978;50.288;28.624;2023-02-17T01:34:00;99018.11;;;1.31;90.57
60337;BME280;46978;50.288;28.624;2023-02-17T01:35:02;99027.48;;;1.30;90.56
60337;BME280;46978;50.288;28.624;2023-02-17T01:36:07;99021.48;;;1.30;90.72
60337;BME280;46978;50.288;28.624;2023-02-17T01:37:09;99024.95;;;1.32;90.73
60337;BME280;46978;50.288;28.624;2023-02-17T01:38:10;99024.93;;;1.30;90.65
60337;BME280;46978;50.288;28.624;2023-02-17T01:39:14;99018.94;;;1.30;90.59
60337;BME280;46978;50.288;28.624;2023-02-17T01:40:17;99029.16;;;1.30;90.58
60337;BME280;46978;50.288;28.624;2023-02-17T01:41:21;99024.05;;;1.30;90.58
60337;BME280;46978;50.288;28.624;2023-02-17T01:42:23;99029.16;;;1.30;90.52
60337;BME280;46978;50.288;28.624;2023-02-17T01:43:25;99024.05;;;1.30;90.52
60337;BME280;46978;50.288;28.624;2023-02-17T01:44:30;99024.05;;;1.30;90.59
60337;BME280;46978;50.288;28.624;2023-02-17T01:45:35;99031.72;;;1.30;90.58
60337;BME280;46978;50.288;28.624;2023-02-17T01:46:38;99025.77;;;1.31;90.64
60337;BME280;46978;50.288;28.624;2023-02-17T01:47:41;99024.02;;;1.28;90.63
60337;BME280;46978;50.288;28.624;2023-02-17T01:48:45;99025.73;;;1.28;90.70
60337;BME280;46978;50.288;28.624;2023-02-17T01:49:48;99018.91;;;1.28;90.75
60337;BME280;46978;50.288;28.624;2023-02-17T01:50:53;99017.22;;;1.27;90.81
60337;BME280;46978;50.288;28.624;2023-02-17T01:52:05;99014.66;;;1.27;90.78
60337;BME280;46978;50.288;28.624;2023-02-17T01:53:08;99023.18;;;1.28;90.73
60337;BME280;46978;50.288;28.624;2023-02-17T01:54:14;99015.52;;;1.28;90.75
60337;BME280;46978;50.288;28.624;2023-02-17T01:55:18;99014.69;;;1.29;90.74
60337;BME280;46978;50.288;28.624;2023-02-17T01:56:23;99018.91;;;1.28;90.75
60337;BME280;46978;50.288;28.624;2023-02-17T01:57:28;99012.95;;;1.28;90.66
60337;BME280;46978;50.288;28.624;2023-02-17T01:58:31;99019.80;;;1.29;90.73
60337;BME280;46978;50.288;28.624;2023-02-17T01:59:34;99017.23;;;1.29;90.82
60337;BME280;46978;50.288;28.624;2023-02-17T02:00:36;99010.40;;;1.28;90.85
60337;BME280;46978;50.288;28.624;2023-02-17T02:01:39;99011.25;;;1.28;90.91
60337;BME280;46978;50.288;28.624;2023-02-17T02:02:43;99011.25;;;1.28;90.91
60337;BME280;46978;50.288;28.624;2023-02-17T02:03:46;99011.25;;;1.28;90.96
60337;BME280;46978;50.288;28.624;2023-02-17T02:04:51;99014.66;;;1.27;91.03
60337;BME280;46978;50.288;28.624;2023-02-17T02:05:54;99006.99;;;1.27;91.06
60337;BME280;46978;50.288;28.624;2023-02-17T02:06:56;99012.11;;;1.27;91.06
60337;BME280;46978;50.288;28.624;2023-02-17T02:07:58;99004.44;;;1.27;90.98
60337;BME280;46978;50.288;28.624;2023-02-17T02:09:10;99007.84;;;1.28;91.07
60337;BME280;46978;50.288;28.624;2023-02-17T02:10:13;99006.11;;;1.27;91.00
60337;BME280;46978;50.288;28.624;2023-02-17T02:11:15;99006.99;;;1.27;91.15
60337;BME280;46978;50.288;28.624;2023-02-17T02:12:22;99009.57;;;1.29;91.14
60337;BME280;46978;50.288;28.624;2023-02-17T02:13:21;99003.58;;;1.28;91.23
60337;BME280;46978;50.288;28.624;2023-02-17T02:14:23;99008.69;;;1.28;91.27
60337;BME280;46978;50.288;28.624;2023-02-17T02:15:28;99003.58;;;1.28;91.32
60337;BME280;46978;50.288;28.624;2023-02-17T02:24:19;99008.67;;;1.27;91.60
60337;BME280;46978;50.288;28.624;2023-02-17T02:34:41;99001.95;;;1.32;91.52
60337;BME280;46978;50.288;28.624;2023-02-17T02:35:47;98998.50;;;1.31;91.59
60337;BME280;46978;50.288;28.624;2023-02-17T02:36:54;99007.88;;;1.31;91.64
60337;BME280;46978;50.288;28.624;2023-02-17T02:37:58;98994.23;;;1.29;91.79
60337;BME280;46978;50.288;28.624;2023-02-17T02:39:12;99001.02;;;1.28;91.77
60337;BME280;46978;50.288;28.624;2023-02-17T02:40:16;99001.04;;;1.30;91.78
60337;BME280;46978;50.288;28.624;2023-02-17T02:41:32;99005.30;;;1.29;91.77
60337;BME280;46978;50.288;28.624;2023-02-17T02:42:35;98997.62;;;1.28;91.81
60337;BME280;46978;50.288;28.624;2023-02-17T02:43:37;99005.28;;;1.28;91.85
60337;BME280;46978;50.288;28.624;2023-02-17T02:44:39;99003.58;;;1.28;91.94
60337;BME280;46978;50.288;28.624;2023-02-17T02:45:41;99003.58;;;1.28;91.95
60337;BME280;46978;50.288;28.624;2023-02-17T02:46:43;99010.40;;;1.28;91.99
60337;BME280;46978;50.288;28.624;2023-02-17T02:47:50;99003.58;;;1.28;91.95
60337;BME280;46978;50.288;28.624;2023-02-17T02:48:52;99003.55;;;1.27;91.98
60337;BME280;46978;50.288;28.624;2023-02-17T02:49:54;99011.23;;;1.27;92.14
60337;BME280;46978;50.288;28.624;2023-02-17T02:53:01;99006.11;;;1.27;92.11
60337;BME280;46978;50.288;28.624;2023-02-17T02:54:44;99006.99;;;1.27;92.08
60337;BME280;46978;50.288;28.624;2023-02-17T02:58:16;99008.67;;;1.27;92.15
60337;BME280;46978;50.288;28.624;2023-02-17T03:00:40;99012.06;;;1.24;92.32
60337;BME280;46978;50.288;28.624;2023-02-17T03:01:46;99000.13;;;1.24;92.28
60337;BME280;46978;50.288;28.624;2023-02-17T03:02:54;99004.39;;;1.24;92.37
60337;BME280;46978;50.288;28.624;2023-02-17T03:06:52;99005.22;;;1.23;92.47
60337;BME280;46978;50.288;28.624;2023-02-17T03:08:03;99002.64;;;1.21;92.50
60337;BME280;46978;50.288;28.624;2023-02-17T03:09:08;99003.50;;;1.22;92.49
60337;BME280;46978;50.288;28.624;2023-02-17T03:10:13;99002.64;;;1.21;92.46
60337;BME280;46978;50.288;28.624;2023-02-17T03:11:15;99002.64;;;1.21;92.50
60337;BME280;46978;50.288;28.624;2023-02-17T03:12:18;99006.05;;;1.22;92.62
60337;BME280;46978;50.288;28.624;2023-02-17T03:13:20;99006.91;;;1.21;92.69
60337;BME280;46978;50.288;28.624;2023-02-17T03:14:22;99006.03;;;1.20;92.69
60337;BME280;46978;50.288;28.624;2023-02-17T03:15:30;99001.80;;;1.21;92.70
60337;BME280;46978;50.288;28.624;2023-02-17T03:16:34;99007.76;;;1.21;92.67
60337;BME280;46978;50.288;28.624;2023-02-17T03:17:36;99008.58;;;1.20;92.67
60337;BME280;46978;50.288;28.624;2023-02-17T03:18:38;99008.56;;;1.19;93.15
60337;BME280;46978;50.288;28.624;2023-02-17T03:19:39;99008.56;;;1.19;93.15
60337;BME280;46978;50.288;28.624;2023-02-17T03:20:48;99007.72;;;1.18;92.84
60337;BME280;46978;50.288;28.624;2023-02-17T03:22:15;99008.55;;;1.17;92.88
60337;BME280;46978;50.288;28.624;2023-02-17T03:23:14;99004.31;;;1.18;92.90
60337;BME280;46978;50.288;28.624;2023-02-17T03:24:16;99011.13;;;1.19;92.94
60337;BME280;46978;50.288;28.624;2023-02-17T03:25:18;99005.14;;;1.17;92.94
60337;BME280;46978;50.288;28.624;2023-02-17T03:26:21;99010.27;;;1.18;92.97
60337;BME280;46978;50.288;28.624;2023-02-17T03:27:22;99013.63;;;1.16;93.09
60337;BME280;46978;50.288;28.624;2023-02-17T03:28:24;99013.63;;;1.16;93.09
60337;BME280;46978;50.288;28.624;2023-02-17T03:29:26;99014.52;;;1.16;93.15
60337;BME280;46978;50.288;28.624;2023-02-17T03:30:28;99012.78;;;1.15;93.27
60337;BME280;46978;50.288;28.624;2023-02-17T03:31:30;99016.17;;;1.14;93.33
60337;BME280;46978;50.288;28.624;2023-02-17T03:32:32;99011.03;;;1.13;93.47
60337;BME280;46978;50.288;28.624;2023-02-17T03:33:34;99017.83;;;1.11;93.55
60337;BME280;46978;50.288;28.624;2023-02-17T03:34:36;99013.56;;;1.11;93.67
60337;BME280;46978;50.288;28.624;2023-02-17T03:35:37;99014.42;;;1.10;93.71
60337;BME280;46978;50.288;28.624;2023-02-17T03:36:39;99015.25;;;1.09;93.75
60337;BME280;46978;50.288;28.624;2023-02-17T03:37:41;99020.36;;;1.09;93.87
60337;BME280;46978;50.288;28.624;2023-02-17T03:38:43;99016.95;;;1.09;93.90
60337;BME280;46978;50.288;28.624;2023-02-17T03:39:44;99022.07;;;1.09;93.92
60337;BME280;46978;50.288;28.624;2023-02-17T03:40:47;99017.81;;;1.09;93.96
60337;BME280;46978;50.288;28.624;2023-02-17T03:41:48;99016.95;;;1.09;93.94
60337;BME280;46978;50.288;28.624;2023-02-17T03:42:50;99011.84;;;1.09;94.01
60337;BME280;46978;50.288;28.624;2023-02-17T03:43:52;99018.61;;;1.06;94.04
60337;BME280;46978;50.288;28.624;2023-02-17T03:44:53;99016.94;;;1.07;94.10
60337;BME280;46978;50.288;28.624;2023-02-17T03:45:55;99017.78;;;1.07;94.10
60337;BME280;46978;50.288;28.624;2023-02-17T03:46:57;99020.34;;;1.07;94.10
60337;BME280;46978;50.288;28.624;2023-02-17T03:47:58;99021.19;;;1.08;94.09
60337;BME280;46978;50.288;28.624;2023-02-17T03:49:00;99025.47;;;1.09;94.07
60337;BME280;46978;50.288;28.624;2023-02-17T03:50:02;99025.45;;;1.07;94.05
60337;BME280;46978;50.288;28.624;2023-02-17T03:51:15;99020.34;;;1.07;94.10
60337;BME280;46978;50.288;28.624;2023-02-17T03:52:18;99020.34;;;1.07;94.13
60337;BME280;46978;50.288;28.624;2023-02-17T03:53:20;99020.34;;;1.07;94.19
60337;BME280;46978;50.288;28.624;2023-02-17T03:54:21;99018.61;;;1.06;94.21
60337;BME280;46978;50.288;28.624;2023-02-17T03:55:23;99024.58;;;1.05;94.26
60337;BME280;46978;50.288;28.624;2023-02-17T03:56:25;99026.28;;;1.06;94.30
60337;BME280;46978;50.288;28.624;2023-02-17T03:57:27;99021.17;;;1.06;94.31
60337;BME280;46978;50.288;28.624;2023-02-17T03:58:28;99020.34;;;1.07;94.31
60337;BME280;46978;50.288;28.624;2023-02-17T03:59:30;99022.92;;;1.09;94.28
60337;BME280;46978;50.288;28.624;2023-02-17T04:00:32;99016.95;;;1.09;94.27
60337;BME280;46978;50.288;28.624;2023-02-17T04:01:34;99020.36;;;1.09;94.29
60337;BME280;46978;50.288;28.624;2023-02-17T04:02:36;99017.81;;;1.09;94.29
60337;BME280;46978;50.288;28.624;2023-02-17T04:03:38;99022.92;;;1.09;94.28
60337;BME280;46978;50.288;28.624;2023-02-17T04:04:40;99014.42;;;1.10;94.28
60337;BME280;46978;50.288;28.624;2023-02-17T04:05:43;99017.81;;;1.09;94.59
60337;BME280;46978;50.288;28.624;2023-02-17T04:06:46;99017.81;;;1.09;94.59
60337;BME280;46978;50.288;28.624;2023-02-17T04:07:48;99016.95;;;1.09;94.31
60337;BME280;46978;50.288;28.624;2023-02-17T04:08:50;99012.67;;;1.07;94.35
60337;BME280;46978;50.288;28.624;2023-02-17T04:09:52;99019.47;;;1.05;94.45
60337;BME280;46978;50.288;28.624;2023-02-17T04:10:57;99016.03;;;1.05;94.50
60337;BME280;46978;50.288;28.624;2023-02-17T04:11:59;99022.00;;;1.04;94.57
60337;BME280;46978;50.288;28.624;2023-02-17T04:13:01;99025.38;;;1.03;94.66
60337;BME280;46978;50.288;28.624;2023-02-17T04:14:03;99022.83;;;1.03;94.72
60337;BME280;46978;50.288;28.624;2023-02-17T04:15:05;99022.83;;;1.03;94.74
60337;BME280;46978;50.288;28.624;2023-02-17T04:16:09;99022.83;;;1.03;94.79
60337;BME280;46978;50.288;28.624;2023-02-17T04:17:11;99017.72;;;1.03;94.87
60337;BME280;46978;50.288;28.624;2023-02-17T04:18:13;99022.83;;;1.03;94.86
60337;BME280;46978;50.288;28.624;2023-02-17T04:19:14;99016.87;;;1.02;94.92
60337;BME280;46978;50.288;28.624;2023-02-17T04:20:17;99018.56;;;1.03;94.90
60337;BME280;46978;50.288;28.624;2023-02-17T04:21:19;99026.23;;;1.03;94.90
60337;BME280;46978;50.288;28.624;2023-02-17T04:22:20;99021.12;;;1.03;94.93
60337;BME280;46978;50.288;28.624;2023-02-17T04:23:23;99018.56;;;1.03;94.92
60337;BME280;46978;50.288;28.624;2023-02-17T04:24:24;99015.16;;;1.03;94.95
60337;BME280;46978;50.288;28.624;2023-02-17T04:25:26;99018.55;;;1.02;94.97
60337;BME280;46978;50.288;28.624;2023-02-17T04:26:28;99020.25;;;1.01;94.98
60337;BME280;46978;50.288;28.624;2023-02-17T04:27:30;99018.52;;;1.00;95.01
60337;BME280;46978;50.288;28.624;2023-02-17T04:28:33;99018.52;;;1.00;94.99
60337;BME280;46978;50.288;28.624;2023-02-17T04:29:35;99017.67;;;1.00;94.97
60337;BME280;46978;50.288;28.624;2023-02-17T04:30:37;99020.20;;;0.98;94.83
60337;BME280;46978;50.288;28.624;2023-02-17T04:31:39;99016.80;;;0.98;94.82
60337;BME280;46978;50.288;28.624;2023-02-17T04:32:40;99022.73;;;0.97;94.85
60337;BME280;46978;50.288;28.624;2023-02-17T04:33:42;99021.03;;;0.97;94.92
60337;BME280;46978;50.288;28.624;2023-02-17T04:34:44;99018.50;;;0.99;94.91
60337;BME280;46978;50.288;28.624;2023-02-17T04:35:46;99019.38;;;0.99;94.90
60337;BME280;46978;50.288;28.624;2023-02-17T04:36:48;99021.91;;;0.98;94.89
60337;BME280;46978;50.288;28.624;2023-02-17T04:37:50;99021.91;;;0.98;94.89
60337;BME280;46978;50.288;28.624;2023-02-17T04:38:52;99020.20;;;0.98;94.86
60337;BME280;46978;50.288;28.624;2023-02-17T04:39:53;99022.76;;;0.98;94.91
60337;BME280;46978;50.288;28.624;2023-02-17T04:40:56;99025.31;;;0.98;94.93
60337;BME280;46978;50.288;28.624;2023-02-17T04:41:59;99024.47;;;0.98;94.92
60337;BME280;46978;50.288;28.624;2023-02-17T04:43:00;99027.02;;;0.98;94.99
60337;BME280;46978;50.288;28.624;2023-02-17T04:44:02;99029.60;;;0.99;95.03
60337;BME280;46978;50.288;28.624;2023-02-17T04:45:05;99025.31;;;0.98;94.98
60337;BME280;46978;50.288;28.624;2023-02-17T04:46:07;99035.56;;;1.00;94.94
60337;BME280;46978;50.288;28.624;2023-02-17T04:47:09;99023.59;;;0.97;94.97
60337;BME280;46978;50.288;28.624;2023-02-17T04:48:10;99021.89;;;0.96;94.98
60337;BME280;46978;50.288;28.624;2023-02-17T04:49:12;99030.41;;;0.97;95.01
60337;BME280;46978;50.288;28.624;2023-02-17T04:50:14;99024.47;;;0.98;94.98
60337;BME280;46978;50.288;28.624;2023-02-17T04:51:16;99023.61;;;0.99;94.93
60337;BME280;46978;50.288;28.624;2023-02-17T04:52:18;99025.29;;;0.97;94.87
60337;BME280;46978;50.288;28.624;2023-02-17T04:53:20;99025.29;;;0.97;95.01
60337;BME280;46978;50.288;28.624;2023-02-17T04:54:21;99024.45;;;0.96;95.02
60337;BME280;46978;50.288;28.624;2023-02-17T04:55:23;99024.42;;;0.95;95.25
60337;BME280;46978;50.288;28.624;2023-02-17T04:56:26;99024.42;;;0.95;95.25
60337;BME280;46978;50.288;28.624;2023-02-17T04:57:28;99030.38;;;0.95;95.12
60337;BME280;46978;50.288;28.624;2023-02-17T04:58:30;99025.25;;;0.94;95.10
60337;BME280;46978;50.288;28.624;2023-02-17T04:59:32;99024.42;;;0.95;95.14
60337;BME280;46978;50.288;28.624;2023-02-17T05:00:35;99021.01;;;0.96;95.11
60337;BME280;46978;50.288;28.624;2023-02-17T05:01:37;99031.20;;;0.94;95.10
60337;BME280;46978;50.288;28.624;2023-02-17T05:02:39;99026.09;;;0.94;95.12
60337;BME280;46978;50.288;28.624;2023-02-17T05:03:41;99032.91;;;0.94;95.08
60337;BME280;46978;50.288;28.624;2023-02-17T05:04:42;99030.36;;;0.94;94.95
60337;BME280;46978;50.288;28.624;2023-02-17T05:06:04;99029.51;;;0.93;94.95
60337;BME280;46978;50.288;28.624;2023-02-17T05:07:06;99034.64;;;0.95;94.94
60337;BME280;46978;50.288;28.624;2023-02-17T05:08:08;99032.91;;;0.94;94.87
60337;BME280;46978;50.288;28.624;2023-02-17T05:09:09;99038.02;;;0.94;94.92
60337;BME280;46978;50.288;28.624;2023-02-17T05:10:14;99043.93;;;0.92;94.97
60337;BME280;46978;50.288;28.624;2023-02-17T05:11:15;99043.93;;;0.91;95.34
60337;BME280;46978;50.288;28.624;2023-02-17T05:12:17;99038.82;;;0.91;95.12
60337;BME280;46978;50.288;28.624;2023-02-17T05:13:19;99043.11;;;0.92;95.07
60337;BME280;46978;50.288;28.624;2023-02-17T05:14:21;99043.08;;;0.91;95.12
60337;BME280;46978;50.288;28.624;2023-02-17T05:15:22;99044.81;;;0.92;95.12
60337;BME280;46978;50.288;28.624;2023-02-17T05:16:24;99047.34;;;0.90;95.22
60337;BME280;46978;50.288;28.624;2023-02-17T05:17:26;99038.77;;;0.88;95.31
60337;BME280;46978;50.288;28.624;2023-02-17T05:18:27;99044.73;;;0.87;95.37
60337;BME280;46978;50.288;28.624;2023-02-17T05:19:29;99046.41;;;0.86;95.41
60337;BME280;46978;50.288;28.624;2023-02-17T05:20:31;99043.86;;;0.86;95.46
60337;BME280;46978;50.288;28.624;2023-02-17T05:21:33;99048.97;;;0.86;95.49
60337;BME280;46978;50.288;28.624;2023-02-17T05:22:35;99047.30;;;0.87;95.48
60337;BME280;46978;50.288;28.624;2023-02-17T05:23:37;99046.41;;;0.86;95.44
60337;BME280;46978;50.288;28.624;2023-02-17T05:24:38;99047.27;;;0.85;95.56
60337;BME280;46978;50.288;28.624;2023-02-17T05:25:40;99057.48;;;0.85;95.60
60337;BME280;46978;50.288;28.624;2023-02-17T05:26:42;99048.12;;;0.86;95.63
60337;BME280;46978;50.288;28.624;2023-02-17T05:27:44;99047.27;;;0.85;95.60
60337;BME280;46978;50.288;28.624;2023-02-17T05:28:45;99045.56;;;0.86;95.61
60337;BME280;46978;50.288;28.624;2023-02-17T05:29:47;99050.67;;;0.86;95.73
60337;BME280;46978;50.288;28.624;2023-02-17T05:30:49;99051.50;;;0.85;95.79
60337;BME280;46978;50.288;28.624;2023-02-17T05:31:50;99042.16;;;0.85;95.78
60337;BME280;46978;50.288;28.624;2023-02-17T05:32:52;99048.94;;;0.85;95.77
60337;BME280;46978;50.288;28.624;2023-02-17T05:33:54;99050.67;;;0.86;95.82
60337;BME280;46978;50.288;28.624;2023-02-17T05:34:56;99043.83;;;0.85;95.81
60337;BME280;46978;50.288;28.624;2023-02-17T05:36:05;99051.52;;;0.86;95.79
60337;BME280;46978;50.288;28.624;2023-02-17T05:37:07;99053.27;;;0.89;95.81
60337;BME280;46978;50.288;28.624;2023-02-17T05:38:09;99060.11;;;0.90;95.68
60337;BME280;46978;50.288;28.624;2023-02-17T05:39:11;99058.41;;;0.91;95.64
60337;BME280;46978;50.288;28.624;2023-02-17T05:40:14;99055.86;;;0.91;95.69
60337;BME280;46978;50.288;28.624;2023-02-17T05:41:17;99058.44;;;0.92;95.55
60337;BME280;46978;50.288;28.624;2023-02-17T05:42:19;99058.44;;;0.92;95.51
60337;BME280;46978;50.288;28.624;2023-02-17T05:43:21;99060.16;;;0.93;95.56
60337;BME280;46978;50.288;28.624;2023-02-17T05:44:22;99066.12;;;0.94;95.64
60337;BME280;46978;50.288;28.624;2023-02-17T05:45:24;99070.41;;;0.95;95.49
60337;BME280;46978;50.288;28.624;2023-02-17T05:46:26;99069.52;;;0.94;95.39
60337;BME280;46978;50.288;28.624;2023-02-17T05:47:28;99062.72;;;0.93;95.35
60337;BME280;46978;50.288;28.624;2023-02-17T05:48:30;99064.41;;;0.94;95.40
60337;BME280;46978;50.288;28.624;2023-02-17T05:49:31;99075.52;;;0.95;95.47
60337;BME280;46978;50.288;28.624;2023-02-17T05:50:33;99072.10;;;0.96;95.38
60337;BME280;46978;50.288;28.624;2023-02-17T05:51:35;99071.25;;;0.95;95.41
60337;BME280;46978;50.288;28.624;2023-02-17T05:52:37;99070.43;;;0.96;95.33
60337;BME280;46978;50.288;28.624;2023-02-17T05:53:39;99072.08;;;0.94;95.34
60337;BME280;46978;50.288;28.624;2023-02-17T05:54:40;99081.45;;;0.94;95.40
60337;BME280;46978;50.288;28.624;2023-02-17T05:55:42;99081.45;;;0.94;95.48
60337;BME280;46978;50.288;28.624;2023-02-17T05:56:43;99080.60;;;0.93;95.41
60337;BME280;46978;50.288;28.624;2023-02-17T05:57:45;99074.59;;;0.91;95.52
60337;BME280;46978;50.288;28.624;2023-02-17T05:58:47;99078.02;;;0.92;95.60